sensor_id;sensor_type;location;lat;lon;timestamp;P1;durP1;ratioP1;P2;durP2;ratioP2
11854;SDS011;5987;53.140;8.904;2023-04-03T00:01:17;4.67;;;2.10;;
11854;SDS011;5987;53.140;8.904;2023-04-03T00:04:21;4.63;;;1.60;;
11854;SDS011;5987;53.140;8.904;2023-04-03T00:07:26;4.93;;;1.80;;
11854;SDS011;5987;53.140;8.904;2023-04-03T00:10:30;2.77;;;1.70;;
11854;SDS011;5987;53.140;8.904;2023-04-03T00:13:34;5.13;;;1.80;;
11854;SDS011;5987;53.140;8.904;2023-04-03T00:16:39;4.03;;;1.80;;
11854;SDS011;5987;53.140;8.904;2023-04-03T00:19:42;5.77;;;2.00;;
11854;SDS011;5987;53.140;8.904;2023-04-03T00:22:47;4.07;;;1.73;;
11854;SDS011;5987;53.140;8.904;2023-04-03T00:25:52;5.30;;;1.53;;
11854;SDS011;5987;53.140;8.904;2023-04-03T00:28:56;4.77;;;1.63;;
11854;SDS011;5987;53.140;8.904;2023-04-03T00:32:00;4.70;;;2.30;;
11854;SDS011;5987;53.140;8.904;2023-04-03T00:35:04;5.70;;;2.00;;
11854;SDS011;5987;53.140;8.904;2023-04-03T00:38:10;3.20;;;1.70;;
11854;SDS011;5987;53.140;8.904;2023-04-03T00:41:13;7.93;;;2.40;;
11854;SDS011;5987;53.140;8.904;2023-04-03T00:44:20;4.67;;;2.00;;
11854;SDS011;5987;53.140;8.904;2023-04-03T00:47:45;4.13;;;2.43;;
11854;SDS011;5987;53.140;8.904;2023-04-03T00:50:49;3.67;;;1.80;;
11854;SDS011;5987;53.140;8.904;2023-04-03T00:53:56;6.43;;;2.30;;
11854;SDS011;5987;53.140;8.904;2023-04-03T00:57:05;6.20;;;2.03;;
11854;SDS011;5987;53.140;8.904;2023-04-03T01:00:12;3.97;;;1.90;;
11854;SDS011;5987;53.140;8.904;2023-04-03T01:03:21;6.07;;;1.67;;
11854;SDS011;5987;53.140;8.904;2023-04-03T01:06:26;4.83;;;1.90;;
11854;SDS011;5987;53.140;8.904;2023-04-03T01:09:35;6.80;;;2.03;;
11854;SDS011;5987;53.140;8.904;2023-04-03T01:12:41;5.93;;;1.93;;
11854;SDS011;5987;53.140;8.904;2023-04-03T01:15:47;6.07;;;2.07;;
11854;SDS011;5987;53.140;8.904;2023-04-03T01:18:51;6.97;;;2.17;;
11854;SDS011;5987;53.140;8.904;2023-04-03T01:22:06;5.27;;;1.90;;
11854;SDS011;5987;53.140;8.904;2023-04-03T01:25:23;6.23;;;2.00;;
11854;SDS011;5987;53.140;8.904;2023-04-03T01:28:28;2.20;;;1.57;;
11854;SDS011;5987;53.140;8.904;2023-04-03T01:31:45;6.17;;;1.60;;
11854;SDS011;5987;53.140;8.904;2023-04-03T01:34:55;3.57;;;1.70;;
11854;SDS011;5987;53.140;8.904;2023-04-03T01:37:59;3.63;;;2.00;;
11854;SDS011;5987;53.140;8.904;2023-04-03T01:41:02;3.83;;;2.07;;
11854;SDS011;5987;53.140;8.904;2023-04-03T01:44:06;5.40;;;1.90;;
11854;SDS011;5987;53.140;8.904;2023-04-03T01:47:11;7.17;;;2.00;;
11854;SDS011;5987;53.140;8.904;2023-04-03T01:50:15;6.70;;;1.90;;
11854;SDS011;5987;53.140;8.904;2023-04-03T01:53:18;4.40;;;2.40;;
11854;SDS011;5987;53.140;8.904;2023-04-03T01:56:22;6.50;;;1.93;;
11854;SDS011;5987;53.140;8.904;2023-04-03T01:59:26;4.27;;;1.83;;
11854;SDS011;5987;53.140;8.904;2023-04-03T02:02:31;3.87;;;2.00;;
11854;SDS011;5987;53.140;8.904;2023-04-03T02:05:35;8.83;;;2.00;;
11854;SDS011;5987;53.140;8.904;2023-04-03T02:08:38;7.20;;;1.97;;
11854;SDS011;5987;53.140;8.904;2023-04-03T02:11:43;6.13;;;2.30;;
11854;SDS011;5987;53.140;8.904;2023-04-03T02:14:46;6.10;;;1.93;;
11854;SDS011;5987;53.140;8.904;2023-04-03T02:17:51;4.20;;;2.00;;
11854;SDS011;5987;53.140;8.904;2023-04-03T02:20:55;3.67;;;2.20;;
11854;SDS011;5987;53.140;8.904;2023-04-03T02:23:59;7.00;;;2.27;;
11854;SDS011;5987;53.140;8.904;2023-04-03T02:27:03;2.93;;;1.90;;
11854;SDS011;5987;53.140;8.904;2023-04-03T02:30:07;6.30;;;2.30;;
11854;SDS011;5987;53.140;8.904;2023-04-03T02:33:13;4.23;;;1.77;;
11854;SDS011;5987;53.140;8.904;2023-04-03T02:36:17;5.10;;;2.03;;
11854;SDS011;5987;53.140;8.904;2023-04-03T02:39:20;3.73;;;2.13;;
11854;SDS011;5987;53.140;8.904;2023-04-03T02:42:24;7.40;;;2.27;;
11854;SDS011;5987;53.140;8.904;2023-04-03T02:45:27;6.07;;;2.13;;
11854;SDS011;5987;53.140;8.904;2023-04-03T02:48:32;7.47;;;2.43;;
11854;SDS011;5987;53.140;8.904;2023-04-03T02:51:36;3.33;;;1.67;;
11854;SDS011;5987;53.140;8.904;2023-04-03T02:54:40;6.97;;;2.20;;
11854;SDS011;5987;53.140;8.904;2023-04-03T02:57:43;6.43;;;1.90;;
11854;SDS011;5987;53.140;8.904;2023-04-03T03:00:47;6.70;;;2.10;;
11854;SDS011;5987;53.140;8.904;2023-04-03T03:03:52;5.30;;;2.13;;
11854;SDS011;5987;53.140;8.904;2023-04-03T03:06:56;5.33;;;2.17;;
11854;SDS011;5987;53.140;8.904;2023-04-03T03:10:01;6.03;;;2.03;;
11854;SDS011;5987;53.140;8.904;2023-04-03T03:13:04;9.60;;;2.37;;
11854;SDS011;5987;53.140;8.904;2023-04-03T03:16:08;6.87;;;2.20;;
11854;SDS011;5987;53.140;8.904;2023-04-03T03:19:13;3.50;;;1.93;;
11854;SDS011;5987;53.140;8.904;2023-04-03T03:22:16;4.50;;;1.90;;
11854;SDS011;5987;53.140;8.904;2023-04-03T03:25:20;4.50;;;2.47;;
11854;SDS011;5987;53.140;8.904;2023-04-03T03:28:25;9.10;;;2.40;;
11854;SDS011;5987;53.140;8.904;2023-04-03T03:31:29;5.63;;;2.40;;
11854;SDS011;5987;53.140;8.904;2023-04-03T03:34:34;4.87;;;2.23;;
11854;SDS011;5987;53.140;8.904;2023-04-03T03:37:38;4.00;;;1.53;;
11854;SDS011;5987;53.140;8.904;2023-04-03T03:40:42;6.10;;;2.13;;
11854;SDS011;5987;53.140;8.904;2023-04-03T03:43:45;3.50;;;2.07;;
11854;SDS011;5987;53.140;8.904;2023-04-03T03:46:49;7.30;;;2.47;;
11854;SDS011;5987;53.140;8.904;2023-04-03T03:49:54;3.87;;;2.53;;
11854;SDS011;5987;53.140;8.904;2023-04-03T03:52:58;5.33;;;2.13;;
11854;SDS011;5987;53.140;8.904;2023-04-03T03:56:01;9.53;;;2.47;;
11854;SDS011;5987;53.140;8.904;2023-04-03T03:59:06;4.70;;;1.83;;
11854;SDS011;5987;53.140;8.904;2023-04-03T04:02:10;9.23;;;2.30;;
11854;SDS011;5987;53.140;8.904;2023-04-03T04:05:15;6.50;;;2.10;;
11854;SDS011;5987;53.140;8.904;2023-04-03T04:08:19;7.67;;;2.67;;
11854;SDS011;5987;53.140;8.904;2023-04-03T04:11:23;5.80;;;2.07;;
11854;SDS011;5987;53.140;8.904;2023-04-03T04:14:26;3.07;;;1.87;;
11854;SDS011;5987;53.140;8.904;2023-04-03T04:17:30;2.93;;;1.97;;
11854;SDS011;5987;53.140;8.904;2023-04-03T04:20:35;2.60;;;2.03;;
11854;SDS011;5987;53.140;8.904;2023-04-03T04:23:39;11.17;;;2.30;;
11854;SDS011;5987;53.140;8.904;2023-04-03T04:26:42;6.47;;;2.00;;
11854;SDS011;5987;53.140;8.904;2023-04-03T04:29:46;6.87;;;2.50;;
11854;SDS011;5987;53.140;8.904;2023-04-03T04:32:49;7.57;;;2.80;;
11854;SDS011;5987;53.140;8.904;2023-04-03T04:35:54;5.40;;;2.47;;
11854;SDS011;5987;53.140;8.904;2023-04-03T04:38:58;8.20;;;2.50;;
11854;SDS011;5987;53.140;8.904;2023-04-03T04:42:02;6.17;;;2.80;;
11854;SDS011;5987;53.140;8.904;2023-04-03T04:45:07;4.87;;;2.30;;
11854;SDS011;5987;53.140;8.904;2023-04-03T04:48:12;7.27;;;3.00;;
11854;SDS011;5987;53.140;8.904;2023-04-03T04:51:17;7.03;;;2.33;;
11854;SDS011;5987;53.140;8.904;2023-04-03T04:54:21;4.97;;;2.40;;
11854;SDS011;5987;53.140;8.904;2023-04-03T04:57:24;4.90;;;2.43;;
11854;SDS011;5987;53.140;8.904;2023-04-03T05:00:29;7.77;;;2.77;;
11854;SDS011;5987;53.140;8.904;2023-04-03T05:03:32;11.73;;;3.30;;
11854;SDS011;5987;53.140;8.904;2023-04-03T05:06:38;8.03;;;3.03;;
11854;SDS011;5987;53.140;8.904;2023-04-03T05:09:42;3.63;;;2.83;;
11854;SDS011;5987;53.140;8.904;2023-04-03T05:12:46;5.67;;;2.70;;
11854;SDS011;5987;53.140;8.904;2023-04-03T05:15:49;8.77;;;3.33;;
11854;SDS011;5987;53.140;8.904;2023-04-03T05:18:53;5.53;;;3.03;;
11854;SDS011;5987;53.140;8.904;2023-04-03T05:21:58;5.67;;;2.80;;
11854;SDS011;5987;53.140;8.904;2023-04-03T05:25:01;6.40;;;3.43;;
11854;SDS011;5987;53.140;8.904;2023-04-03T05:28:06;7.40;;;3.37;;
11854;SDS011;5987;53.140;8.904;2023-04-03T05:31:10;7.13;;;2.77;;
11854;SDS011;5987;53.140;8.904;2023-04-03T05:34:13;6.07;;;3.50;;
11854;SDS011;5987;53.140;8.904;2023-04-03T05:37:18;10.53;;;4.13;;
11854;SDS011;5987;53.140;8.904;2023-04-03T05:40:22;5.90;;;3.87;;
11854;SDS011;5987;53.140;8.904;2023-04-03T05:43:27;5.77;;;3.73;;
11854;SDS011;5987;53.140;8.904;2023-04-03T05:46:30;5.37;;;3.27;;
11854;SDS011;5987;53.140;8.904;2023-04-03T05:49:34;7.77;;;3.80;;
11854;SDS011;5987;53.140;8.904;2023-04-03T05:52:44;7.27;;;3.17;;
11854;SDS011;5987;53.140;8.904;2023-04-03T05:55:52;9.07;;;3.70;;
11854;SDS011;5987;53.140;8.904;2023-04-03T05:58:55;7.37;;;3.60;;
11854;SDS011;5987;53.140;8.904;2023-04-03T06:01:59;7.07;;;3.87;;
11854;SDS011;5987;53.140;8.904;2023-04-03T06:05:03;10.57;;;4.07;;
11854;SDS011;5987;53.140;8.904;2023-04-03T06:08:10;4.13;;;3.57;;
11854;SDS011;5987;53.140;8.904;2023-04-03T06:11:13;9.57;;;3.70;;
11854;SDS011;5987;53.140;8.904;2023-04-03T06:14:17;10.20;;;4.30;;
11854;SDS011;5987;53.140;8.904;2023-04-03T06:17:21;7.40;;;3.63;;
11854;SDS011;5987;53.140;8.904;2023-04-03T06:20:25;8.57;;;4.00;;
11854;SDS011;5987;53.140;8.904;2023-04-03T06:23:30;8.07;;;3.97;;
11854;SDS011;5987;53.140;8.904;2023-04-03T06:26:35;5.03;;;4.17;;
11854;SDS011;5987;53.140;8.904;2023-04-03T06:29:39;10.20;;;4.63;;
11854;SDS011;5987;53.140;8.904;2023-04-03T06:32:42;4.37;;;3.30;;
11854;SDS011;5987;53.140;8.904;2023-04-03T06:35:46;8.70;;;4.13;;
11854;SDS011;5987;53.140;8.904;2023-04-03T06:38:51;5.40;;;3.43;;
11854;SDS011;5987;53.140;8.904;2023-04-03T06:41:55;7.50;;;3.93;;
11854;SDS011;5987;53.140;8.904;2023-04-03T06:44:58;6.50;;;3.20;;
11854;SDS011;5987;53.140;8.904;2023-04-03T06:48:03;10.60;;;3.80;;
11854;SDS011;5987;53.140;8.904;2023-04-03T06:51:17;7.20;;;3.73;;
11854;SDS011;5987;53.140;8.904;2023-04-03T06:54:24;4.43;;;3.07;;
11854;SDS011;5987;53.140;8.904;2023-04-03T06:57:28;5.10;;;2.97;;
11854;SDS011;5987;53.140;8.904;2023-04-03T07:00:32;8.63;;;3.67;;
11854;SDS011;5987;53.140;8.904;2023-04-03T07:03:36;5.47;;;3.40;;
11854;SDS011;5987;53.140;8.904;2023-04-03T07:06:40;11.73;;;3.20;;
11854;SDS011;5987;53.140;8.904;2023-04-03T07:09:45;4.53;;;2.90;;
11854;SDS011;5987;53.140;8.904;2023-04-03T07:12:49;5.77;;;2.63;;
11854;SDS011;5987;53.140;8.904;2023-04-03T07:15:54;4.17;;;3.27;;
11854;SDS011;5987;53.140;8.904;2023-04-03T07:18:58;8.77;;;3.00;;
11854;SDS011;5987;53.140;8.904;2023-04-03T07:22:01;6.37;;;2.27;;
11854;SDS011;5987;53.140;8.904;2023-04-03T07:25:07;5.47;;;2.70;;
11854;SDS011;5987;53.140;8.904;2023-04-03T07:28:12;4.30;;;2.40;;
11854;SDS011;5987;53.140;8.904;2023-04-03T07:31:17;4.80;;;2.23;;
11854;SDS011;5987;53.140;8.904;2023-04-03T07:34:21;5.60;;;2.40;;
11854;SDS011;5987;53.140;8.904;2023-04-03T07:37:24;8.70;;;2.20;;
11854;SDS011;5987;53.140;8.904;2023-04-03T07:40:29;4.30;;;1.57;;
11854;SDS011;5987;53.140;8.904;2023-04-03T07:43:33;4.33;;;1.47;;
11854;SDS011;5987;53.140;8.904;2023-04-03T07:46:36;4.10;;;1.63;;
11854;SDS011;5987;53.140;8.904;2023-04-03T07:49:40;4.10;;;1.43;;
11854;SDS011;5987;53.140;8.904;2023-04-03T07:52:47;5.23;;;1.60;;
11854;SDS011;5987;53.140;8.904;2023-04-03T07:55:56;3.17;;;1.20;;
11854;SDS011;5987;53.140;8.904;2023-04-03T07:59:01;5.47;;;1.67;;
11854;SDS011;5987;53.140;8.904;2023-04-03T08:02:05;1.73;;;1.37;;
11854;SDS011;5987;53.140;8.904;2023-04-03T08:05:11;4.13;;;1.57;;
11854;SDS011;5987;53.140;8.904;2023-04-03T08:08:15;4.70;;;1.60;;
11854;SDS011;5987;53.140;8.904;2023-04-03T08:11:23;2.50;;;0.90;;
11854;SDS011;5987;53.140;8.904;2023-04-03T08:14:29;4.33;;;1.53;;
11854;SDS011;5987;53.140;8.904;2023-04-03T08:17:36;2.67;;;1.10;;
11854;SDS011;5987;53.140;8.904;2023-04-03T08:20:39;3.23;;;1.43;;
11854;SDS011;5987;53.140;8.904;2023-04-03T08:23:43;4.23;;;1.80;;
11854;SDS011;5987;53.140;8.904;2023-04-03T08:26:48;3.43;;;1.17;;
11854;SDS011;5987;53.140;8.904;2023-04-03T08:29:52;3.03;;;0.80;;
11854;SDS011;5987;53.140;8.904;2023-04-03T08:32:55;2.83;;;0.80;;
11854;SDS011;5987;53.140;8.904;2023-04-03T08:35:59;1.67;;;0.87;;
11854;SDS011;5987;53.140;8.904;2023-04-03T08:39:03;4.50;;;0.80;;
11854;SDS011;5987;53.140;8.904;2023-04-03T08:42:12;3.67;;;1.10;;
11854;SDS011;5987;53.140;8.904;2023-04-03T08:45:28;1.10;;;0.80;;
11854;SDS011;5987;53.140;8.904;2023-04-03T08:48:46;4.10;;;1.00;;
11854;SDS011;5987;53.140;8.904;2023-04-03T08:51:53;2.03;;;0.80;;
11854;SDS011;5987;53.140;8.904;2023-04-03T08:54:58;2.77;;;1.00;;
11854;SDS011;5987;53.140;8.904;2023-04-03T08:58:07;1.27;;;0.60;;
11854;SDS011;5987;53.140;8.904;2023-04-03T09:01:17;0.53;;;0.53;;
11854;SDS011;5987;53.140;8.904;2023-04-03T09:04:26;5.03;;;1.03;;
11854;SDS011;5987;53.140;8.904;2023-04-03T09:07:36;0.80;;;0.80;;
11854;SDS011;5987;53.140;8.904;2023-04-03T09:10:51;1.27;;;0.50;;
11854;SDS011;5987;53.140;8.904;2023-04-03T09:14:11;1.80;;;0.70;;
11854;SDS011;5987;53.140;8.904;2023-04-03T09:17:30;1.97;;;0.70;;
11854;SDS011;5987;53.140;8.904;2023-04-03T09:20:49;1.23;;;1.13;;
11854;SDS011;5987;53.140;8.904;2023-04-03T09:24:05;1.67;;;0.80;;
11854;SDS011;5987;53.140;8.904;2023-04-03T09:27:11;1.77;;;0.63;;
11854;SDS011;5987;53.140;8.904;2023-04-03T09:30:17;4.07;;;0.87;;
11854;SDS011;5987;53.140;8.904;2023-04-03T09:33:23;1.57;;;0.73;;
11854;SDS011;5987;53.140;8.904;2023-04-03T09:36:37;3.73;;;1.40;;
11854;SDS011;5987;53.140;8.904;2023-04-03T09:39:49;1.43;;;0.50;;
11854;SDS011;5987;53.140;8.904;2023-04-03T09:42:57;2.47;;;0.90;;
11854;SDS011;5987;53.140;8.904;2023-04-03T09:49:33;2.63;;;0.80;;
11854;SDS011;5987;53.140;8.904;2023-04-03T09:52:37;1.70;;;0.90;;
11854;SDS011;5987;53.140;8.904;2023-04-03T09:55:42;1.83;;;1.00;;
11854;SDS011;5987;53.140;8.904;2023-04-03T09:58:48;2.20;;;0.80;;
11854;SDS011;5987;53.140;8.904;2023-04-03T10:01:59;0.90;;;0.53;;
11854;SDS011;5987;53.140;8.904;2023-04-03T10:05:27;1.37;;;0.70;;
11854;SDS011;5987;53.140;8.904;2023-04-03T10:08:42;1.37;;;0.60;;
11854;SDS011;5987;53.140;8.904;2023-04-03T10:15:20;1.80;;;0.73;;
11854;SDS011;5987;53.140;8.904;2023-04-03T10:18:29;1.50;;;0.60;;
11854;SDS011;5987;53.140;8.904;2023-04-03T10:21:45;2.37;;;0.77;;
11854;SDS011;5987;53.140;8.904;2023-04-03T10:25:00;1.50;;;0.70;;
11854;SDS011;5987;53.140;8.904;2023-04-03T10:28:12;2.23;;;0.90;;
11854;SDS011;5987;53.140;8.904;2023-04-03T10:31:28;0.70;;;0.60;;
11854;SDS011;5987;53.140;8.904;2023-04-03T10:34:47;4.67;;;0.93;;
11854;SDS011;5987;53.140;8.904;2023-04-03T10:38:08;0.90;;;0.90;;
11854;SDS011;5987;53.140;8.904;2023-04-03T10:41:24;1.13;;;0.67;;
11854;SDS011;5987;53.140;8.904;2023-04-03T10:44:45;4.00;;;1.20;;
11854;SDS011;5987;53.140;8.904;2023-04-03T10:48:25;2.53;;;0.80;;
11854;SDS011;5987;53.140;8.904;2023-04-03T10:51:48;3.30;;;1.03;;
11854;SDS011;5987;53.140;8.904;2023-04-03T10:55:05;2.47;;;0.67;;
11854;SDS011;5987;53.140;8.904;2023-04-03T10:58:28;1.60;;;0.73;;
11854;SDS011;5987;53.140;8.904;2023-04-03T11:01:38;0.90;;;0.80;;
11854;SDS011;5987;53.140;8.904;2023-04-03T11:04:47;1.20;;;0.67;;
11854;SDS011;5987;53.140;8.904;2023-04-03T11:07:59;4.50;;;0.83;;
11854;SDS011;5987;53.140;8.904;2023-04-03T11:11:13;1.17;;;0.80;;
11854;SDS011;5987;53.140;8.904;2023-04-03T11:14:24;4.50;;;1.10;;
11854;SDS011;5987;53.140;8.904;2023-04-03T11:17:33;1.73;;;0.90;;
11854;SDS011;5987;53.140;8.904;2023-04-03T11:20:42;2.53;;;1.03;;
11854;SDS011;5987;53.140;8.904;2023-04-03T11:24:05;1.17;;;0.57;;
11854;SDS011;5987;53.140;8.904;2023-04-03T11:27:23;2.83;;;0.83;;
11854;SDS011;5987;53.140;8.904;2023-04-03T11:30:30;1.67;;;0.90;;
11854;SDS011;5987;53.140;8.904;2023-04-03T11:33:51;1.93;;;1.07;;
11854;SDS011;5987;53.140;8.904;2023-04-03T11:37:11;2.23;;;0.70;;
11854;SDS011;5987;53.140;8.904;2023-04-03T11:40:34;2.13;;;1.10;;
11854;SDS011;5987;53.140;8.904;2023-04-03T11:43:41;1.73;;;0.90;;
11854;SDS011;5987;53.140;8.904;2023-04-03T11:47:00;2.83;;;0.83;;
11854;SDS011;5987;53.140;8.904;2023-04-03T11:53:43;3.03;;;0.77;;
11854;SDS011;5987;53.140;8.904;2023-04-03T11:56:54;2.27;;;1.60;;
11854;SDS011;5987;53.140;8.904;2023-04-03T11:59:57;2.37;;;1.00;;
11854;SDS011;5987;53.140;8.904;2023-04-03T12:03:01;2.07;;;1.27;;
11854;SDS011;5987;53.140;8.904;2023-04-03T12:10:17;2.50;;;1.20;;
11854;SDS011;5987;53.140;8.904;2023-04-03T12:13:32;4.37;;;1.20;;
11854;SDS011;5987;53.140;8.904;2023-04-03T12:16:41;2.63;;;1.10;;
11854;SDS011;5987;53.140;8.904;2023-04-03T12:19:49;1.43;;;0.80;;
11854;SDS011;5987;53.140;8.904;2023-04-03T12:23:08;3.70;;;1.30;;
11854;SDS011;5987;53.140;8.904;2023-04-03T12:26:28;1.17;;;1.00;;
11854;SDS011;5987;53.140;8.904;2023-04-03T12:29:51;1.03;;;0.97;;
11854;SDS011;5987;53.140;8.904;2023-04-03T12:33:13;2.70;;;1.00;;
11854;SDS011;5987;53.140;8.904;2023-04-03T12:36:38;2.57;;;1.00;;
11854;SDS011;5987;53.140;8.904;2023-04-03T12:39:54;1.83;;;1.20;;
11854;SDS011;5987;53.140;8.904;2023-04-03T12:43:15;5.60;;;1.37;;
11854;SDS011;5987;53.140;8.904;2023-04-03T12:46:37;5.17;;;1.27;;
11854;SDS011;5987;53.140;8.904;2023-04-03T12:49:46;1.33;;;0.83;;
11854;SDS011;5987;53.140;8.904;2023-04-03T12:52:56;1.87;;;1.03;;
11854;SDS011;5987;53.140;8.904;2023-04-03T12:56:20;3.27;;;1.20;;
11854;SDS011;5987;53.140;8.904;2023-04-03T12:59:27;2.30;;;0.80;;
11854;SDS011;5987;53.140;8.904;2023-04-03T13:02:32;1.50;;;0.90;;
11854;SDS011;5987;53.140;8.904;2023-04-03T13:05:39;1.33;;;0.90;;
11854;SDS011;5987;53.140;8.904;2023-04-03T13:08:50;2.80;;;1.30;;
11854;SDS011;5987;53.140;8.904;2023-04-03T13:11:57;1.57;;;1.10;;
11854;SDS011;5987;53.140;8.904;2023-04-03T13:15:12;1.57;;;1.10;;
11854;SDS011;5987;53.140;8.904;2023-04-03T13:18:23;2.90;;;1.63;;
11854;SDS011;5987;53.140;8.904;2023-04-03T13:21:33;1.53;;;0.93;;
11854;SDS011;5987;53.140;8.904;2023-04-03T13:24:38;1.07;;;0.97;;
11854;SDS011;5987;53.140;8.904;2023-04-03T13:27:43;4.53;;;1.37;;
11854;SDS011;5987;53.140;8.904;2023-04-03T13:30:55;4.00;;;1.27;;
11854;SDS011;5987;53.140;8.904;2023-04-03T13:34:06;3.97;;;1.13;;
11854;SDS011;5987;53.140;8.904;2023-04-03T13:37:21;2.07;;;1.30;;
11854;SDS011;5987;53.140;8.904;2023-04-03T13:40:26;1.67;;;0.90;;
11854;SDS011;5987;53.140;8.904;2023-04-03T13:43:39;6.43;;;3.27;;
11854;SDS011;5987;53.140;8.904;2023-04-03T13:46:44;2.57;;;1.60;;
11854;SDS011;5987;53.140;8.904;2023-04-03T13:49:58;3.10;;;1.17;;
11854;SDS011;5987;53.140;8.904;2023-04-03T13:53:09;3.27;;;1.80;;
11854;SDS011;5987;53.140;8.904;2023-04-03T13:56:17;1.07;;;0.90;;
11854;SDS011;5987;53.140;8.904;2023-04-03T13:59:30;2.30;;;1.57;;
11854;SDS011;5987;53.140;8.904;2023-04-03T14:02:35;2.93;;;1.10;;
11854;SDS011;5987;53.140;8.904;2023-04-03T14:05:42;1.27;;;1.07;;
11854;SDS011;5987;53.140;8.904;2023-04-03T14:08:46;3.23;;;1.17;;
11854;SDS011;5987;53.140;8.904;2023-04-03T14:11:51;2.20;;;0.97;;
11854;SDS011;5987;53.140;8.904;2023-04-03T14:14:59;5.33;;;1.20;;
11854;SDS011;5987;53.140;8.904;2023-04-03T14:18:05;2.47;;;1.00;;
11854;SDS011;5987;53.140;8.904;2023-04-03T14:21:10;2.57;;;1.37;;
11854;SDS011;5987;53.140;8.904;2023-04-03T14:24:16;2.53;;;1.20;;
11854;SDS011;5987;53.140;8.904;2023-04-03T14:27:22;3.30;;;1.27;;
11854;SDS011;5987;53.140;8.904;2023-04-03T14:30:32;4.03;;;0.90;;
11854;SDS011;5987;53.140;8.904;2023-04-03T14:33:38;2.33;;;1.10;;
11854;SDS011;5987;53.140;8.904;2023-04-03T14:36:44;1.80;;;1.23;;
11854;SDS011;5987;53.140;8.904;2023-04-03T14:39:48;2.40;;;1.07;;
11854;SDS011;5987;53.140;8.904;2023-04-03T14:42:54;1.27;;;0.83;;
11854;SDS011;5987;53.140;8.904;2023-04-03T14:46:00;3.80;;;1.43;;
11854;SDS011;5987;53.140;8.904;2023-04-03T14:49:05;3.10;;;1.30;;
11854;SDS011;5987;53.140;8.904;2023-04-03T14:52:19;3.47;;;1.70;;
11854;SDS011;5987;53.140;8.904;2023-04-03T14:55:26;3.63;;;1.10;;
11854;SDS011;5987;53.140;8.904;2023-04-03T14:58:30;3.37;;;1.30;;
11854;SDS011;5987;53.140;8.904;2023-04-03T15:01:36;2.87;;;1.00;;
11854;SDS011;5987;53.140;8.904;2023-04-03T15:04:40;3.13;;;1.10;;
11854;SDS011;5987;53.140;8.904;2023-04-03T15:07:45;3.30;;;1.20;;
11854;SDS011;5987;53.140;8.904;2023-04-03T15:10:54;4.07;;;1.10;;
11854;SDS011;5987;53.140;8.904;2023-04-03T15:14:00;4.47;;;1.60;;
11854;SDS011;5987;53.140;8.904;2023-04-03T15:17:05;2.70;;;1.30;;
11854;SDS011;5987;53.140;8.904;2023-04-03T15:20:18;2.67;;;1.23;;
11854;SDS011;5987;53.140;8.904;2023-04-03T15:23:25;1.83;;;1.30;;
11854;SDS011;5987;53.140;8.904;2023-04-03T15:26:29;2.50;;;1.30;;
11854;SDS011;5987;53.140;8.904;2023-04-03T15:29:34;1.80;;;1.17;;
11854;SDS011;5987;53.140;8.904;2023-04-03T15:32:40;2.43;;;0.97;;
11854;SDS011;5987;53.140;8.904;2023-04-03T15:35:44;4.20;;;1.50;;
11854;SDS011;5987;53.140;8.904;2023-04-03T15:38:48;4.50;;;1.30;;
11854;SDS011;5987;53.140;8.904;2023-04-03T15:41:52;2.13;;;0.93;;
11854;SDS011;5987;53.140;8.904;2023-04-03T15:44:56;2.40;;;1.17;;
11854;SDS011;5987;53.140;8.904;2023-04-03T15:48:01;1.43;;;1.10;;
11854;SDS011;5987;53.140;8.904;2023-04-03T15:51:06;3.57;;;1.20;;
11854;SDS011;5987;53.140;8.904;2023-04-03T15:54:09;2.27;;;1.20;;
11854;SDS011;5987;53.140;8.904;2023-04-03T15:57:13;1.07;;;0.97;;
11854;SDS011;5987;53.140;8.904;2023-04-03T16:00:17;3.37;;;1.20;;
11854;SDS011;5987;53.140;8.904;2023-04-03T16:03:23;5.20;;;1.30;;
11854;SDS011;5987;53.140;8.904;2023-04-03T16:06:27;3.67;;;1.17;;
11854;SDS011;5987;53.140;8.904;2023-04-03T16:09:32;2.63;;;1.40;;
11854;SDS011;5987;53.140;8.904;2023-04-03T16:12:36;3.40;;;1.20;;
11854;SDS011;5987;53.140;8.904;2023-04-03T16:15:40;2.60;;;1.10;;
11854;SDS011;5987;53.140;8.904;2023-04-03T16:18:46;3.80;;;1.57;;
11854;SDS011;5987;53.140;8.904;2023-04-03T16:21:50;2.03;;;1.37;;
11854;SDS011;5987;53.140;8.904;2023-04-03T16:24:58;1.23;;;1.07;;
11854;SDS011;5987;53.140;8.904;2023-04-03T16:28:02;2.07;;;1.40;;
11854;SDS011;5987;53.140;8.904;2023-04-03T16:31:06;1.80;;;1.60;;
11854;SDS011;5987;53.140;8.904;2023-04-03T16:34:12;1.83;;;1.23;;
11854;SDS011;5987;53.140;8.904;2023-04-03T16:37:18;1.93;;;1.43;;
11854;SDS011;5987;53.140;8.904;2023-04-03T16:40:22;1.73;;;1.10;;
11854;SDS011;5987;53.140;8.904;2023-04-03T16:43:25;1.37;;;0.93;;
11854;SDS011;5987;53.140;8.904;2023-04-03T16:46:29;2.03;;;1.17;;
11854;SDS011;5987;53.140;8.904;2023-04-03T16:49:34;2.33;;;1.23;;
11854;SDS011;5987;53.140;8.904;2023-04-03T16:52:38;3.00;;;1.67;;
11854;SDS011;5987;53.140;8.904;2023-04-03T16:55:42;3.57;;;1.70;;
11854;SDS011;5987;53.140;8.904;2023-04-03T16:58:46;2.07;;;1.17;;
11854;SDS011;5987;53.140;8.904;2023-04-03T17:01:51;2.90;;;1.57;;
11854;SDS011;5987;53.140;8.904;2023-04-03T17:04:56;4.57;;;1.40;;
11854;SDS011;5987;53.140;8.904;2023-04-03T17:08:00;2.27;;;1.13;;
11854;SDS011;5987;53.140;8.904;2023-04-03T17:11:04;1.83;;;1.30;;
11854;SDS011;5987;53.140;8.904;2023-04-03T17:14:08;5.50;;;1.50;;
11854;SDS011;5987;53.140;8.904;2023-04-03T17:17:13;3.37;;;1.50;;
11854;SDS011;5987;53.140;8.904;2023-04-03T17:20:18;2.03;;;1.20;;
11854;SDS011;5987;53.140;8.904;2023-04-03T17:23:23;2.27;;;1.30;;
11854;SDS011;5987;53.140;8.904;2023-04-03T17:26:28;3.60;;;1.47;;
11854;SDS011;5987;53.140;8.904;2023-04-03T17:29:32;3.00;;;1.77;;
11854;SDS011;5987;53.140;8.904;2023-04-03T17:32:35;4.53;;;2.30;;
11854;SDS011;5987;53.140;8.904;2023-04-03T17:35:41;2.03;;;1.10;;
11854;SDS011;5987;53.140;8.904;2023-04-03T17:38:45;4.27;;;1.70;;
11854;SDS011;5987;53.140;8.904;2023-04-03T17:41:49;3.43;;;1.27;;
11854;SDS011;5987;53.140;8.904;2023-04-03T17:44:55;2.60;;;1.33;;
11854;SDS011;5987;53.140;8.904;2023-04-03T17:47:58;3.13;;;1.50;;
11854;SDS011;5987;53.140;8.904;2023-04-03T17:51:04;3.57;;;1.50;;
11854;SDS011;5987;53.140;8.904;2023-04-03T17:54:08;3.77;;;1.40;;
11854;SDS011;5987;53.140;8.904;2023-04-03T17:57:12;3.27;;;1.77;;
11854;SDS011;5987;53.140;8.904;2023-04-03T18:00:16;3.00;;;1.70;;
11854;SDS011;5987;53.140;8.904;2023-04-03T18:03:20;2.57;;;1.50;;
11854;SDS011;5987;53.140;8.904;2023-04-03T18:06:26;3.50;;;1.40;;
11854;SDS011;5987;53.140;8.904;2023-04-03T18:09:34;1.83;;;1.37;;
11854;SDS011;5987;53.140;8.904;2023-04-03T18:12:41;3.37;;;1.70;;
11854;SDS011;5987;53.140;8.904;2023-04-03T18:15:45;6.87;;;2.40;;
11854;SDS011;5987;53.140;8.904;2023-04-03T18:18:49;3.47;;;2.03;;
11854;SDS011;5987;53.140;8.904;2023-04-03T18:22:14;5.63;;;2.20;;
11854;SDS011;5987;53.140;8.904;2023-04-03T18:25:22;4.00;;;2.20;;
11854;SDS011;5987;53.140;8.904;2023-04-03T18:28:25;2.93;;;1.83;;
11854;SDS011;5987;53.140;8.904;2023-04-03T18:31:33;3.80;;;2.00;;
11854;SDS011;5987;53.140;8.904;2023-04-03T18:34:38;2.77;;;2.10;;
11854;SDS011;5987;53.140;8.904;2023-04-03T18:37:43;2.57;;;1.80;;
11854;SDS011;5987;53.140;8.904;2023-04-03T18:40:48;5.73;;;2.33;;
11854;SDS011;5987;53.140;8.904;2023-04-03T18:43:51;4.90;;;2.23;;
11854;SDS011;5987;53.140;8.904;2023-04-03T18:46:57;7.67;;;2.30;;
11854;SDS011;5987;53.140;8.904;2023-04-03T18:50:02;2.83;;;2.10;;
11854;SDS011;5987;53.140;8.904;2023-04-03T18:53:08;3.13;;;2.40;;
11854;SDS011;5987;53.140;8.904;2023-04-03T18:56:12;3.30;;;2.17;;
11854;SDS011;5987;53.140;8.904;2023-04-03T18:59:16;3.80;;;2.10;;
11854;SDS011;5987;53.140;8.904;2023-04-03T19:02:20;3.77;;;1.93;;
11854;SDS011;5987;53.140;8.904;2023-04-03T19:05:26;4.23;;;1.63;;
11854;SDS011;5987;53.140;8.904;2023-04-03T19:08:32;2.43;;;1.43;;
11854;SDS011;5987;53.140;8.904;2023-04-03T19:11:36;2.77;;;1.47;;
11854;SDS011;5987;53.140;8.904;2023-04-03T19:14:40;4.07;;;1.63;;
11854;SDS011;5987;53.140;8.904;2023-04-03T19:17:43;2.47;;;1.30;;